Panagiotis Giakoumakis

Scout - Panathinaikos
3 Dec 2028
Sunday
Process

Personality

Adaptability (12) Ambition (10) Controversy (3) Loyalty (18) Pressure (1) Professionalism (20) Sportsmanship (19) Temperament (17)

Profile

Coaching Style Democratic
License Continental C
Determination 12
Man Management 13
Motivating 13
Discipline 12
Job Satisfaction
100%
Fatigue
0%
Role Scout
Wage 51.4K p/w
Contract 14.03.2029

Performance

Behaviour Good
Training Effectiveness
45%
Player Development
40%
Injury Prevention
60%
Tactical Implementation
35%

Recent Events

Attended a recruitment meeting now
Recommended a transfer target now
Attended a recruitment meeting 7d ago
Recommended a transfer target 7d ago
Recommended a transfer target 7d ago
Observed a match 7d ago
Observed a match 14d ago
Assessed a player 14d ago

Currently Monitoring

149
Player Club Status Ability Confidence Watched Last Observed Latest Vote
Joel Ezra Enyimba Active 93 / 104 40% 7 19.11.2028 -
Álvaro Montoro Botafogo Active 140 / 136 40% 2 19.11.2028 -
Tahiel Peralta Racing Club Active 112 / 117 40% 1 19.11.2028 -
Ayyoub Bouaddi Stoke City Active 151 / 153 40% 2 16.11.2028 -
Franco Mastantuono Córdoba Active 152 / 153 40% 1 16.11.2028 -
Santiago Segovia Rosario Central Active 110 / 118 40% 3 14.11.2028 -
Lionel Jara Central Córdoba SdE Active 100 / 102 40% 3 14.11.2028 -
Peyton Miller New England Revolution Active 120 / 121 40% 1 14.11.2028 -
Lisandro Piñero Banfield Active 126 / 129 40% 2 12.11.2028 -
Valentino Huertas Morón Active 108 / 110 40% 1 08.11.2028 -
Martín Jiménez Iquique Active 105 / 110 40% 3 15.10.2028 -
Nadir Sánchez Central Córdoba SdE Active 101 / 109 40% 2 15.10.2028 -
Honest Ahanor Atalanta Active 138 / 145 40% 3 14.10.2028 -
Alex Verón Vélez Active 116 / 124 40% 5 13.10.2028 -
Dieguinho Grêmio Active 120 / 124 40% 2 12.10.2028 -
Babis Kostoulas Oxford United Active 150 / 154 40% 3 10.10.2028 -
Julian Hall Real Salt Lake Active 116 / 123 40% 1 10.10.2028 -
Luka Andrade Montevideo City Torque Active 102 / 108 40% 4 04.10.2028 -
Gustavo Lozano Metropolitanos Active 102 / 103 40% 1 04.10.2028 -
Julián Bartolo Asteras Active 120 / 118 83% 1 03.06.2028 Approve
Shea Charles Southampton Active 152 / 148 40% 4 01.06.2028 -
Yussif Saidu Zaragoza Active 126 / 130 40% 1 01.06.2028 -
Andrey Santos Bolton Wanderers Active 145 / 143 40% 1 01.06.2028 -
Callum O'Hare Sheffield United Active 137 / 132 40% 1 31.05.2028 -
Patson Daka Leicester City Active 127 / 131 40% 1 31.05.2028 -
Borja Mayoral Getafe Active 142 / 145 40% 1 31.12.2027 -
Lucas Villalba Botafogo Active 133 / 126 40% 1 31.12.2027 -
Dejan Joveljić Seattle Sounders Active 129 / 127 40% 1 31.12.2027 -
Josh Acheampong Everton Active 147 / 146 40% 2 28.12.2027 -
Luighi Palmeiras Active 116 / 118 40% 2 28.12.2027 -
Luca Meirelles Kudrivka Active 129 / 125 40% 1 27.12.2027 -
Rafael Moreno Atletico Venezuela Active 106 / 116 40% 4 22.12.2027 -
Pedro Baltika Active 136 / 141 40% 4 22.12.2027 -
Christ Wawa Gefle Active 99 / 106 40% 2 20.12.2027 -
Jeremías Merlo Gimnasia La Plata Active 127 / 127 40% 6 19.12.2027 -
Ibrahim Fullah Charlton Athletic Active 118 / 133 40% 1 13.12.2027 -
Victor Hernandez Santa Fe Active 123 / 123 40% 7 08.12.2027 -
Matías Arias Vélez Active 114 / 118 40% 3 08.12.2027 -
Héctor Fort Real Sociedad Active 140 / 141 40% 1 08.12.2027 -
Ruben Ramos LA Galaxy Active 106 / 113 40% 2 07.12.2027 -
Matias Siltanen Malmo FF Active 127 / 128 40% 6 30.11.2027 -
Juan Rodríguez Cerro Largo Active 95 / 105 40% 8 29.11.2027 -
Maren Kefas Plateau United Active 100 / 101 40% 9 26.11.2027 -
Mateo Silvetti Seattle Sounders Active 129 / 130 40% 4 23.11.2027 -
Eli Junior Kroupi Bournemouth Active 141 / 148 40% 1 19.11.2027 -
Adrian Skogmar Malmo FF Active 114 / 118 40% 3 16.11.2027 -
Albert Aleksanjan IFK Norrkoping Active 103 / 105 40% 2 13.11.2027 -
Giovanni Baroni Talleres Active 107 / 118 40% 2 11.11.2027 -
Mfundo Vilakazi Free State Stars Active 124 / 130 40% 1 10.11.2027 -
Ben Gannon Doak Charlton Athletic Active 156 / 148 40% 6 03.11.2027 -
Rémi Himbert AC Ajaccio Active 108 / 123 40% 1 29.10.2027 -
Dylan Cabral Arsenal Active 96 / 103 40% 3 28.10.2027 -
Tomás Aranda Boca Juniors Active 110 / 125 40% 1 27.10.2027 -
Piero Cari Alianza Lima Active 97 / 103 40% 1 25.10.2027 -
Valentino Acuña Newell's Old Boys Active 112 / 117 40% 3 17.10.2027 -
Nicolás Barros Schelotto Gimnasia La Plata Active 116 / 129 40% 1 17.10.2027 -
Abdoul Ouattara Port Vale Active 139 / 136 40% 1 15.10.2027 -
Abubakar Garba Nasarawa United Active 87 / 97 40% 3 12.10.2027 -
Francisco Marchant Colo-Colo Active 94 / 101 40% 3 04.10.2027 -
Didier Dawson Envigado Active 105 / 111 40% 1 03.10.2027 -
Gabriel Lopes San Marcos de Arica Active 99 / 104 40% 1 30.09.2027 -
Mateo Peralta Danubio Active 117 / 115 40% 1 30.09.2027 -
Alejandro Leiva Patronato Active 98 / 104 40% 2 12.09.2027 -
Tiago Pucciarelli IF Elfsborg Active 95 / 103 40% 1 09.09.2027 -
Iñaki Peña Urawa Reds Lost 155 / 141 40% 1 16.08.2027 -
Diego Romero Universitario Active 130 / 125 40% 1 16.08.2027 -
Elia Caprile Cagliari Active 144 / 149 40% 1 20.07.2027 -
Patrick Sequeira Casa Pia Active 127 / 128 40% 1 12.07.2027 -
James Trafford Leeds United Active 146 / 153 40% 1 12.07.2027 -
Anthony Patterson Wrexham Active 131 / 139 40% 1 05.07.2027 -
Dale Taylor Blackpool Active 115 / 111 40% 1 29.06.2027 -
Lazaros Lamprou Volos NPS Lost 125 / 118 79% 1 28.06.2027 -
Mohammad Hosseini Malavan Active 119 / 121 40% 1 28.06.2027 -
Marezi Portsmouth Active 117 / 130 40% 1 28.06.2027 -
Bénie Traoré New York City Active 131 / 132 40% 1 28.06.2027 -
Kazunari Kita Real Sociedad Active 95 / 97 40% 4 30.05.2027 -
Tommaso Pobega Bologna Active 133 / 146 40% 3 30.05.2027 -
Arthur Atta Fiorentina Active 149 / 143 40% 2 30.05.2027 -
Enrico Delprato Parma Active 145 / 131 40% 4 28.05.2027 -
Giorgi Chakvetadze Watford Active 131 / 130 40% 1 28.05.2027 -
Charlie Gray Fleetwood Town Active 94 / 92 40% 2 27.05.2027 -
Zane Albarus Shrewsbury Town Active 88 / 100 40% 1 27.05.2027 -
Marco Brescianini Fiorentina Active 147 / 133 40% 2 26.05.2027 -
Billy Gilmour Napoli Active 143 / 149 40% 2 26.05.2027 -
Jack Rudoni Coventry City Active 138 / 132 40% 2 25.05.2027 -
Jack Diamond Stockport County Active 114 / 111 40% 1 25.05.2027 -
Ali Ahmed Norwich City Active 125 / 117 40% 2 22.05.2027 -
Tyrese Campbell Sheffield United Active 128 / 122 40% 2 22.05.2027 -
Jordan Beyer Burnley Active 142 / 142 40% 4 20.05.2027 -
Oswin Appollis Orlando Pirates Active 121 / 118 40% 2 18.05.2027 -
Samuel Edozie Southampton Active 129 / 123 40% 1 18.05.2027 -
Max Bird Birmingham Active 138 / 130 40% 1 14.05.2027 -
Jacques Ekomié Wrexham Active 136 / 132 40% 1 14.05.2027 -
Rocco Vata Watford Active 126 / 122 40% 1 14.05.2027 -
Jason Knight Bristol City Active 138 / 131 40% 2 13.05.2027 -
Habib Diarra Sunderland Active 137 / 141 40% 3 11.05.2027 -
Welington Southampton Active 125 / 125 40% 2 11.05.2027 -
Tariq Lamptey Queens Park Rangers Active 130 / 127 40% 1 11.05.2027 -
Richard Koné Queens Park Rangers Active 130 / 128 40% 2 08.05.2027 -
Kwadwo Baah Watford Active 120 / 124 40% 2 08.05.2027 -
Milan van Ewijk Coventry City Active 138 / 136 40% 1 07.05.2027 -
Tomáš Suslov Hellas Verona Active 134 / 137 40% 1 07.05.2027 -
Hans Nicolussi Caviglia Parma Active 142 / 135 40% 1 06.05.2027 -
Caleb Yirenkyi Coventry City Active 133 / 136 40% 1 06.05.2027 -
Joe Gelhardt Hull City Active 137 / 137 40% 3 04.05.2027 -
Derensili Sanches Fernandes Huddersfield Town Active 124 / 123 40% 1 03.05.2027 -
Bobby Clark Derby County Active 119 / 123 40% 1 03.05.2027 -
Aidomo Emakhu Oxford United Active 115 / 119 40% 1 03.05.2027 -
Isaiah Jones Luton Town Active 121 / 124 40% 1 02.05.2027 -
Alex Robertson Cardiff City Active 125 / 128 40% 1 01.05.2027 -
Juan Miranda Bologna Active 140 / 133 40% 1 30.04.2027 -
Sam Bell Bristol City Active 126 / 116 40% 1 29.04.2027 -
Toby Collyer West Bromwich Albion Active 128 / 140 40% 1 28.04.2027 -
Sam Greenwood Bristol City Active 117 / 118 40% 1 27.04.2027 -
Maldini Kacurri Grimsby Town Active 100 / 93 40% 1 27.04.2027 -
Gonçalo Oliveira Benfica Active 113 / 117 40% 2 26.04.2027 -
Jan Bürger Northampton Town Active 106 / 112 40% 1 26.04.2027 -
Samuele di Benedetto Twente Active 107 / 116 40% 1 26.04.2027 -
Tiago Freitas Benfica Active 117 / 114 40% 2 24.04.2027 -
Oliver Skipp Leicester City Active 136 / 127 40% 1 24.04.2027 -
Alexander Prass TSG Hoffenheim Active 139 / 139 40% 1 23.04.2027 -
Olivier Leroux Mouscron Active 88 / 98 40% 1 22.04.2027 -
Miguel Figueiredo Benfica Active 114 / 112 40% 3 20.04.2027 -
Eliás Montiel Borussia Dortmund Active 134 / 132 40% 1 20.04.2027 -
Enzo Koffi Olympique de Marseille Active 104 / 108 40% 1 20.04.2027 -
Darlin Yongwa Norwich City Active 129 / 130 40% 1 19.04.2027 -
Jacob Greaves Ipswich Town Active 138 / 137 40% 1 17.04.2027 -
Gustavo Mantuan Zenit Active 136 / 136 40% 3 16.04.2027 -
Marcelino Núñez Ipswich Town Active 136 / 136 40% 1 13.04.2027 -
Vouria Azmoun Gostaresh Foulad Active 101 / 103 40% 1 12.04.2027 -
Panagiotis Markou Doxa Active 97 / 92 40% 2 09.04.2027 -
Ezra Mayers West Ham United Active 119 / 129 40% 1 09.04.2027 -
Oumar Solet Udinese Active 154 / 153 40% 1 07.04.2027 -
Jordan Zemura Udinese Active 138 / 139 40% 3 06.04.2027 -
Lucas Da Cunha Como Active 146 / 142 40% 1 05.04.2027 -
Adrián Bernabé Parma Active 140 / 139 40% 1 05.04.2027 -
Florentino Luís Ipswich Town Active 144 / 139 40% 2 04.04.2027 -
Mamadou Sangaré Brentford Active 137 / 145 40% 1 04.04.2027 -
Lewis Ferguson Bologna Active 136 / 146 40% 1 02.04.2027 -
Tommaso Cecotti Carpi Active 90 / 90 40% 1 31.03.2027 -
Kiani Inge Groningen Active 109 / 102 40% 1 29.03.2027 -
Cam Bragg West Ham United Active 111 / 114 40% 1 26.03.2027 -
Jenson Jones Walsall Active 93 / 104 40% 2 25.03.2027 -
Leandro Martins Benfica Active 90 / 100 40% 1 25.03.2027 -
Samuele Diodato Lumezzane Active 86 / 87 40% 1 24.03.2027 -
Sascha Britschgi AC Milan Active 115 / 126 40% 1 23.03.2027 -
Amine Boukamir Charleroi Active 98 / 108 40% 1 22.03.2027 -
Riley Owen Stevenage Active 103 / 107 40% 1 20.03.2027 -
Ricardo Velho Aris Thessaloniki Active 122 / 125 79% 1 25.01.2027 Approve